createdAt,value
2017-11-21T00:00:51.447Z,10.40
2017-11-21T00:03:19.098Z,10.40
2017-11-21T00:05:47.004Z,10.50
2017-11-21T00:08:14.639Z,10.40
2017-11-21T00:10:42.275Z,10.40
2017-11-21T00:13:10.774Z,10.50
2017-11-21T00:15:38.636Z,10.50
2017-11-21T00:18:06.262Z,10.50
2017-11-21T00:20:34.818Z,10.50
2017-11-21T00:23:02.471Z,10.50
2017-11-21T00:25:30.178Z,10.60
2017-11-21T00:27:57.861Z,10.60
2017-11-21T00:30:25.506Z,10.60
2017-11-21T00:32:53.135Z,10.60
2017-11-21T00:35:20.748Z,10.60
2017-11-21T00:37:49.284Z,10.60
2017-11-21T00:40:16.944Z,10.60
2017-11-21T00:42:44.574Z,10.60
2017-11-21T00:45:13.410Z,10.70
2017-11-21T00:47:41.095Z,10.70
2017-11-21T00:50:09.662Z,10.70
2017-11-21T00:52:38.369Z,10.70
2017-11-21T00:55:05.995Z,10.70
2017-11-21T00:57:33.680Z,10.70
2017-11-21T01:00:01.272Z,10.70
2017-11-21T01:02:28.962Z,10.60
2017-11-21T01:04:56.631Z,10.60
2017-11-21T01:07:25.040Z,10.60
2017-11-21T01:09:52.715Z,10.60
2017-11-21T01:12:20.383Z,10.70
2017-11-21T01:14:48.793Z,10.70
2017-11-21T01:17:16.369Z,10.70
2017-11-21T01:19:44.078Z,10.80
2017-11-21T01:22:11.708Z,10.80
2017-11-21T01:24:39.406Z,10.80
2017-11-21T01:27:07.862Z,10.90
2017-11-21T01:29:35.500Z,10.90
2017-11-21T01:32:03.164Z,10.80
2017-11-21T01:34:30.768Z,10.90
2017-11-21T01:36:58.402Z,11.00
2017-11-21T01:39:26.097Z,11.00
2017-11-21T01:41:53.808Z,10.90
2017-11-21T01:44:21.545Z,11.00
2017-11-21T01:46:49.237Z,11.10
2017-11-21T01:49:16.968Z,11.10
2017-11-21T01:51:44.580Z,11.10
2017-11-21T01:54:12.198Z,11.10
2017-11-21T01:56:40.301Z,11.10
2017-11-21T01:59:07.906Z,11.20
2017-11-21T02:01:36.342Z,11.30
2017-11-21T02:04:03.988Z,11.30
2017-11-21T02:06:31.698Z,11.30
2017-11-21T02:09:00.104Z,11.30
2017-11-21T02:11:27.756Z,11.40
2017-11-21T02:13:55.392Z,11.30
2017-11-21T02:16:23.167Z,11.30
2017-11-21T02:18:50.773Z,11.40
2017-11-21T02:21:18.661Z,11.10
2017-11-21T02:23:46.280Z,11.10
2017-11-21T02:26:14.679Z,11.10
2017-11-21T02:28:42.564Z,11.10
2017-11-21T02:31:10.260Z,11.10
2017-11-21T02:33:37.890Z,11.20
2017-11-21T02:36:05.571Z,11.20
2017-11-21T02:38:33.392Z,11.20
2017-11-21T02:41:01.773Z,11.10
2017-11-21T02:43:29.439Z,11.10
2017-11-21T02:45:57.132Z,11.10
2017-11-21T02:48:24.822Z,11.10
2017-11-21T02:50:53.242Z,11.10
2017-11-21T02:53:20.954Z,11.20
2017-11-21T02:55:49.279Z,11.20
2017-11-21T02:58:17.077Z,11.20
2017-11-21T03:00:44.737Z,11.00
2017-11-21T03:03:12.490Z,11.00
2017-11-21T03:05:40.229Z,11.00
2017-11-21T03:08:07.918Z,11.00
2017-11-21T03:10:35.599Z,11.00
2017-11-21T03:13:03.289Z,11.00
2017-11-21T03:15:30.933Z,10.90
2017-11-21T03:17:58.666Z,10.80
2017-11-21T03:20:38.258Z,10.90
2017-11-21T03:23:17.747Z,11.00
2017-11-21T03:25:57.237Z,11.00
2017-11-21T03:28:36.696Z,11.00
2017-11-21T03:31:05.157Z,11.00
2017-11-21T03:33:32.817Z,11.00
2017-11-21T03:36:01.459Z,10.90
2017-11-21T03:38:29.111Z,11.00
2017-11-21T03:40:56.769Z,10.90
2017-11-21T03:43:25.250Z,11.00
2017-11-21T03:45:54.647Z,11.00
2017-11-21T03:48:22.367Z,11.00
2017-11-21T03:50:50.005Z,11.10
2017-11-21T03:53:18.398Z,11.10
2017-11-21T03:55:46.045Z,11.00
2017-11-21T03:58:13.761Z,11.10
2017-11-21T04:00:41.556Z,11.10
2017-11-21T04:03:09.253Z,11.20
2017-11-21T04:05:36.943Z,11.20
2017-11-21T04:08:04.635Z,11.20
2017-11-21T04:10:32.349Z,11.20
2017-11-21T04:12:59.983Z,11.20
2017-11-21T04:15:27.761Z,11.20
2017-11-21T04:17:55.403Z,11.30
2017-11-21T04:20:23.734Z,11.30
2017-11-21T04:22:51.335Z,11.30
2017-11-21T04:25:19.036Z,11.30
2017-11-21T04:27:46.726Z,11.30
2017-11-21T04:30:14.433Z,11.30
2017-11-21T04:32:42.098Z,11.30
2017-11-21T04:35:09.757Z,11.30
2017-11-21T04:37:37.498Z,11.20
2017-11-21T04:40:05.318Z,11.10
2017-11-21T04:42:32.971Z,11.20
2017-11-21T04:45:00.644Z,11.20
2017-11-21T04:47:28.369Z,11.20
2017-11-21T04:49:56.908Z,11.30
2017-11-21T04:52:24.583Z,11.30
2017-11-21T04:54:52.257Z,11.30
2017-11-21T04:57:19.853Z,11.20
2017-11-21T04:59:47.641Z,11.30
2017-11-21T05:02:15.329Z,11.30
2017-11-21T05:04:43.017Z,11.30
2017-11-21T05:07:10.694Z,11.30
2017-11-21T05:09:38.352Z,11.20
2017-11-21T05:12:06.028Z,11.20
2017-11-21T05:14:33.682Z,11.20
2017-11-21T05:17:01.392Z,11.20
2017-11-21T05:19:29.063Z,11.30
2017-11-21T05:21:56.774Z,11.30
2017-11-21T05:24:24.510Z,11.30
2017-11-21T05:26:52.186Z,11.40
2017-11-21T05:29:19.827Z,11.40
2017-11-21T05:31:47.478Z,11.40
2017-11-21T05:34:15.131Z,11.40
2017-11-21T05:36:42.781Z,11.40
2017-11-21T05:39:10.475Z,11.40
2017-11-21T05:41:38.177Z,11.50
2017-11-21T05:44:05.905Z,11.40
2017-11-21T05:46:33.543Z,11.30
2017-11-21T05:49:01.234Z,11.30
2017-11-21T05:51:30.623Z,11.20
2017-11-21T05:53:58.297Z,11.20
2017-11-21T05:56:25.985Z,11.30
2017-11-21T05:58:53.692Z,11.40
2017-11-21T06:01:21.418Z,11.40
2017-11-21T06:03:49.054Z,11.30
2017-11-21T06:06:16.712Z,11.40
2017-11-21T06:08:44.396Z,11.30
2017-11-21T06:11:12.073Z,11.30
2017-11-21T06:13:39.794Z,11.30
2017-11-21T06:16:07.410Z,11.40
2017-11-21T06:18:35.036Z,11.40
2017-11-21T06:21:03.442Z,11.40
2017-11-21T06:23:31.255Z,11.40
2017-11-21T06:25:58.961Z,11.40
2017-11-21T06:28:26.649Z,11.50
2017-11-21T06:30:54.335Z,11.40
2017-11-21T06:33:21.931Z,11.40
2017-11-21T06:35:49.612Z,11.40
2017-11-21T06:38:17.345Z,11.40
2017-11-21T06:40:45.088Z,11.50
2017-11-21T06:43:13.938Z,11.40
2017-11-21T06:45:41.567Z,11.40
2017-11-21T06:48:10.106Z,11.40
2017-11-21T06:50:37.703Z,11.40
2017-11-21T06:53:05.313Z,11.50
2017-11-21T06:55:33.705Z,11.50
2017-11-21T06:58:01.437Z,11.50
2017-11-21T07:00:29.055Z,11.60
2017-11-21T07:02:56.693Z,11.60
2017-11-21T07:05:24.383Z,11.50
2017-11-21T07:07:52.030Z,11.60
2017-11-21T07:10:19.734Z,11.50
2017-11-21T07:12:48.201Z,11.60
2017-11-21T07:15:15.898Z,11.60
2017-11-21T07:17:43.605Z,11.60
2017-11-21T07:20:11.300Z,11.60
2017-11-21T07:22:39.086Z,11.60
2017-11-21T07:25:06.708Z,11.70
2017-11-21T07:27:35.098Z,11.70
2017-11-21T07:30:02.776Z,11.70
2017-11-21T07:32:30.477Z,11.60
2017-11-21T07:34:58.064Z,11.60
2017-11-21T07:37:25.711Z,11.60
2017-11-21T07:39:53.458Z,11.60
2017-11-21T07:42:21.199Z,11.60
2017-11-21T07:44:50.578Z,11.60
2017-11-21T07:47:19.059Z,11.80
2017-11-21T07:49:46.762Z,11.80
2017-11-21T07:52:14.456Z,11.70
2017-11-21T07:54:42.075Z,11.60
2017-11-21T07:57:09.788Z,11.70
2017-11-21T07:59:37.614Z,11.80
2017-11-21T08:02:06.550Z,11.80
2017-11-21T08:04:35.044Z,11.80
2017-11-21T08:07:03.514Z,11.90
2017-11-21T08:09:31.978Z,11.90
2017-11-21T08:11:59.726Z,11.90
2017-11-21T08:14:27.401Z,11.90
2017-11-21T08:16:55.123Z,12.00
2017-11-21T08:19:22.863Z,11.90
2017-11-21T08:21:50.467Z,11.80
2017-11-21T08:24:18.124Z,11.80
2017-11-21T08:26:46.658Z,11.80
2017-11-21T08:29:15.116Z,11.80
2017-11-21T08:31:42.793Z,11.80
2017-11-21T08:34:10.495Z,11.90
2017-11-21T08:36:38.197Z,12.00
2017-11-21T08:39:05.950Z,12.00
2017-11-21T08:41:33.706Z,11.90
2017-11-21T08:44:02.019Z,11.70
2017-11-21T08:46:29.663Z,11.80
2017-11-21T08:48:57.318Z,11.70
2017-11-21T08:51:24.962Z,11.70
2017-11-21T08:53:52.595Z,11.80
2017-11-21T08:56:20.207Z,11.90
2017-11-21T08:58:47.852Z,11.90
2017-11-21T09:01:15.552Z,12.00
2017-11-21T09:03:43.196Z,12.00
2017-11-21T09:06:10.944Z,12.00
2017-11-21T09:08:38.552Z,12.00
2017-11-21T09:11:07.002Z,12.10
2017-11-21T09:13:34.633Z,12.10
2017-11-21T09:16:02.306Z,12.10
2017-11-21T09:18:29.956Z,12.10
2017-11-21T09:20:58.585Z,12.10
2017-11-21T09:23:27.061Z,12.20
2017-11-21T09:25:54.758Z,12.20
2017-11-21T09:28:22.462Z,12.20
2017-11-21T09:30:50.135Z,12.20
2017-11-21T09:33:17.853Z,12.20
2017-11-21T09:35:45.858Z,12.30
2017-11-21T09:38:13.843Z,12.30
2017-11-21T09:40:41.525Z,12.20
2017-11-21T09:43:09.237Z,12.30
2017-11-21T09:45:36.941Z,12.30
2017-11-21T09:48:04.694Z,12.20
2017-11-21T09:50:32.414Z,12.10
2017-11-21T09:53:00.079Z,12.30
2017-11-21T09:55:27.686Z,12.30
2017-11-21T09:57:55.338Z,12.30
2017-11-21T10:00:22.951Z,12.20
2017-11-21T10:02:50.562Z,12.20
2017-11-21T10:05:18.220Z,12.30
2017-11-21T10:07:45.955Z,12.30
2017-11-21T10:10:13.622Z,12.30
2017-11-21T10:12:41.291Z,12.20
2017-11-21T10:15:09.716Z,12.20
2017-11-21T10:17:37.433Z,12.20
2017-11-21T10:20:05.178Z,12.10
2017-11-21T10:22:32.794Z,12.00
2017-11-21T10:25:00.518Z,12.10
2017-11-21T10:27:28.214Z,12.10
2017-11-21T10:29:55.872Z,12.10
2017-11-21T10:32:23.520Z,12.20
2017-11-21T10:34:51.888Z,12.20
2017-11-21T10:37:20.026Z,12.20
2017-11-21T10:39:47.641Z,12.20
2017-11-21T10:42:15.282Z,12.20
2017-11-21T10:44:43.011Z,12.20
2017-11-21T10:47:10.653Z,12.30
2017-11-21T10:49:38.286Z,12.40
2017-11-21T10:52:05.949Z,12.30
2017-11-21T10:54:34.414Z,12.30
2017-11-21T10:57:02.063Z,12.30
2017-11-21T10:59:29.704Z,12.40
2017-11-21T11:01:57.333Z,12.40
2017-11-21T11:04:24.974Z,12.40
2017-11-21T11:06:52.721Z,12.40
2017-11-21T11:09:21.106Z,12.40
2017-11-21T11:11:49.574Z,12.30
2017-11-21T11:14:17.207Z,12.30
2017-11-21T11:16:44.890Z,12.40
2017-11-21T11:19:12.597Z,12.30
2017-11-21T11:21:40.323Z,12.40
2017-11-21T11:24:07.986Z,12.40
2017-11-21T11:26:35.784Z,12.50
2017-11-21T11:29:03.537Z,12.50
2017-11-21T11:31:31.201Z,12.50
2017-11-21T11:33:58.841Z,12.40
2017-11-21T11:36:26.503Z,12.50
2017-11-21T11:38:55.011Z,12.40
2017-11-21T11:41:22.674Z,12.40
2017-11-21T11:43:50.295Z,12.50
2017-11-21T11:46:17.962Z,12.50
2017-11-21T11:48:45.610Z,12.40
2017-11-21T11:51:13.268Z,12.40
2017-11-21T11:53:40.973Z,12.40
2017-11-21T11:56:09.532Z,12.30
2017-11-21T11:58:37.173Z,12.30
2017-11-21T12:01:04.823Z,12.10
2017-11-21T12:03:32.515Z,12.20
2017-11-21T12:06:00.135Z,12.20
2017-11-21T12:08:27.965Z,12.10
2017-11-21T12:10:55.595Z,12.20
2017-11-21T12:13:23.202Z,12.20
2017-11-21T12:15:50.859Z,12.20
2017-11-21T12:18:19.558Z,12.30
2017-11-21T12:20:47.188Z,12.20
2017-11-21T12:23:15.654Z,12.20
2017-11-21T12:25:44.517Z,12.20
2017-11-21T12:28:12.155Z,12.20
2017-11-21T12:30:40.691Z,12.20
2017-11-21T12:33:08.317Z,12.10
2017-11-21T12:35:36.038Z,12.20
2017-11-21T12:38:03.641Z,12.20
2017-11-21T12:40:31.319Z,12.20
2017-11-21T12:42:59.170Z,12.20
2017-11-21T12:45:27.317Z,12.20
2017-11-21T12:47:55.602Z,12.10
2017-11-21T12:50:23.350Z,12.20
2017-11-21T12:52:50.995Z,12.20
2017-11-21T12:55:18.637Z,12.20
2017-11-21T12:57:47.019Z,12.20
2017-11-21T13:00:14.635Z,12.20
2017-11-21T13:02:42.232Z,12.10
2017-11-21T13:05:10.023Z,12.10
2017-11-21T13:07:37.726Z,12.00
2017-11-21T13:10:05.397Z,12.00
2017-11-21T13:12:33.055Z,12.00
2017-11-21T13:15:00.700Z,12.00
2017-11-21T13:17:28.310Z,12.10
2017-11-21T13:19:56.695Z,12.00
2017-11-21T13:22:24.447Z,12.00
2017-11-21T13:24:52.884Z,11.90
2017-11-21T13:27:20.522Z,11.90
2017-11-21T13:29:48.163Z,12.00
2017-11-21T13:32:15.856Z,11.80
2017-11-21T13:34:43.473Z,11.90
2017-11-21T13:37:11.866Z,11.90
2017-11-21T13:39:39.552Z,11.90
2017-11-21T13:42:07.258Z,11.90
2017-11-21T13:44:35.697Z,11.90
2017-11-21T13:47:03.325Z,11.90
2017-11-21T13:49:30.961Z,11.90
2017-11-21T13:51:59.427Z,11.90
2017-11-21T13:54:27.201Z,11.90
2017-11-21T13:56:54.919Z,11.90
2017-11-21T13:59:22.595Z,12.00
2017-11-21T14:01:50.350Z,11.90
2017-11-21T14:04:18.062Z,11.90
2017-11-21T14:06:45.766Z,11.90
2017-11-21T14:09:13.402Z,11.90
2017-11-21T14:11:41.139Z,12.00
2017-11-21T14:14:08.805Z,11.90
2017-11-21T14:16:36.441Z,11.90
2017-11-21T14:19:04.144Z,11.90
2017-11-21T14:21:32.549Z,11.80
2017-11-21T14:24:00.332Z,11.80
2017-11-21T14:26:27.976Z,11.80
2017-11-21T14:28:55.599Z,11.70
2017-11-21T14:31:23.292Z,11.60
2017-11-21T14:33:50.958Z,11.70
2017-11-21T14:36:18.577Z,11.70
2017-11-21T14:38:46.195Z,11.60
2017-11-21T14:41:13.898Z,11.70
2017-11-21T14:43:41.713Z,11.60
2017-11-21T14:46:09.483Z,11.60
2017-11-21T14:48:37.451Z,11.60
2017-11-21T14:51:05.161Z,11.50
2017-11-21T14:53:32.865Z,11.50
2017-11-21T14:56:00.610Z,11.50
2017-11-21T14:58:28.277Z,11.60
2017-11-21T15:00:56.017Z,11.60
2017-11-21T15:03:23.695Z,11.60
2017-11-21T15:05:51.987Z,11.40
2017-11-21T15:08:19.643Z,11.50
2017-11-21T15:10:48.089Z,11.50
2017-11-21T15:13:15.743Z,11.50
2017-11-21T15:15:43.948Z,11.50
2017-11-21T15:18:11.613Z,11.40
2017-11-21T15:20:39.261Z,11.40
2017-11-21T15:23:06.979Z,11.30
2017-11-21T15:25:34.635Z,11.30
2017-11-21T15:28:02.280Z,11.40
2017-11-21T15:30:30.674Z,11.40
2017-11-21T15:32:58.332Z,11.30
2017-11-21T15:35:25.938Z,11.40
2017-11-21T15:37:53.606Z,11.30
2017-11-21T15:40:21.267Z,11.30
2017-11-21T15:42:48.922Z,11.20
2017-11-21T15:45:16.538Z,11.10
2017-11-21T15:47:44.202Z,11.10
2017-11-21T15:50:11.863Z,11.10
2017-11-21T15:52:40.183Z,11.10
2017-11-21T15:55:07.790Z,11.10
2017-11-21T15:57:35.388Z,11.10
2017-11-21T16:00:03.159Z,11.20
2017-11-21T16:02:31.587Z,11.10
2017-11-21T16:05:00.166Z,11.10
2017-11-21T16:07:27.804Z,11.10
2017-11-21T16:09:55.421Z,11.10
2017-11-21T16:12:23.059Z,11.00
2017-11-21T16:14:50.682Z,11.00
2017-11-21T16:17:18.376Z,11.10
2017-11-21T16:19:46.806Z,11.00
2017-11-21T16:22:14.395Z,11.00
2017-11-21T16:24:42.832Z,11.10
2017-11-21T16:27:10.598Z,11.10
2017-11-21T16:29:38.271Z,11.00
2017-11-21T16:32:05.856Z,11.10
2017-11-21T16:34:33.590Z,11.00
2017-11-21T16:37:01.263Z,10.90
2017-11-21T16:39:28.893Z,11.00
2017-11-21T16:41:57.345Z,10.90
2017-11-21T16:44:24.967Z,10.90
2017-11-21T16:46:53.359Z,10.90
2017-11-21T16:49:20.980Z,10.90
2017-11-21T16:51:48.605Z,10.90
2017-11-21T16:54:17.010Z,10.80
2017-11-21T16:56:44.673Z,10.80
2017-11-21T16:59:14.900Z,10.80
2017-11-21T17:01:42.474Z,10.90
2017-11-21T17:04:10.154Z,10.80
2017-11-21T17:06:37.801Z,10.80
2017-11-21T17:09:05.433Z,10.70
2017-11-21T17:11:33.848Z,10.80
2017-11-21T17:14:01.538Z,10.70
2017-11-21T17:16:29.189Z,10.70
2017-11-21T17:18:57.142Z,10.80
2017-11-21T17:21:24.893Z,10.80
2017-11-21T17:23:52.525Z,10.70
2017-11-21T17:26:20.281Z,10.60
2017-11-21T17:28:47.944Z,10.60
2017-11-21T17:31:15.626Z,10.70
2017-11-21T17:33:43.255Z,10.60
2017-11-21T17:36:10.868Z,10.70
2017-11-21T17:38:38.481Z,10.60
2017-11-21T17:41:06.164Z,10.70
2017-11-21T17:43:34.631Z,10.60
2017-11-21T17:46:02.755Z,10.50
2017-11-21T17:48:30.358Z,10.40
2017-11-21T17:50:58.033Z,10.50
2017-11-21T17:53:25.676Z,10.50
2017-11-21T17:55:53.312Z,10.50
2017-11-21T17:58:20.900Z,10.50
2017-11-21T18:00:48.683Z,10.50
2017-11-21T18:03:16.290Z,10.50
2017-11-21T18:05:43.992Z,10.50
2017-11-21T18:08:11.653Z,10.50
2017-11-21T18:10:39.348Z,10.50
2017-11-21T18:13:07.051Z,10.50
2017-11-21T18:15:34.716Z,10.50
2017-11-21T18:18:02.381Z,10.50
2017-11-21T18:20:29.982Z,10.50
2017-11-21T18:22:57.734Z,10.50
2017-11-21T18:25:26.152Z,10.50
2017-11-21T18:27:53.762Z,10.50
2017-11-21T18:30:22.201Z,10.50
2017-11-21T18:33:04.496Z,10.50
2017-11-21T18:35:32.155Z,10.50
2017-11-21T18:37:59.921Z,10.50
2017-11-21T18:40:27.989Z,10.60
2017-11-21T18:42:55.757Z,10.60
2017-11-21T18:45:24.259Z,10.60
2017-11-21T18:47:51.896Z,10.50
2017-11-21T18:50:27.193Z,10.60
2017-11-21T18:52:55.351Z,10.60
2017-11-21T18:55:23.262Z,10.70
2017-11-21T18:57:51.055Z,10.70
2017-11-21T19:00:18.642Z,10.70
2017-11-21T19:02:46.297Z,10.60
2017-11-21T19:05:13.977Z,10.60
2017-11-21T19:07:42.046Z,10.60
2017-11-21T19:10:10.173Z,10.60
2017-11-21T19:12:40.923Z,10.70
2017-11-21T19:15:09.527Z,10.70
2017-11-21T19:17:37.274Z,10.60
2017-11-21T19:20:04.897Z,10.60
2017-11-21T19:22:32.596Z,10.60
2017-11-21T19:25:00.248Z,10.60
2017-11-21T19:27:28.000Z,10.70
2017-11-21T19:29:56.206Z,10.70
2017-11-21T19:32:24.096Z,10.60
2017-11-21T19:34:52.037Z,10.60
2017-11-21T19:37:20.843Z,10.60
2017-11-21T19:39:48.688Z,10.50
2017-11-21T19:42:16.459Z,10.60
2017-11-21T19:44:44.161Z,10.60
2017-11-21T19:47:12.558Z,10.60
2017-11-21T19:49:40.240Z,10.70
2017-11-21T19:52:09.209Z,10.70
2017-11-21T19:54:36.821Z,10.70
2017-11-21T19:57:04.560Z,10.80
2017-11-21T19:59:32.199Z,10.90
2017-11-21T20:01:59.922Z,10.90
2017-11-21T20:04:28.397Z,10.80
2017-11-21T20:06:56.865Z,10.80
2017-11-21T20:09:24.501Z,10.80
2017-11-21T20:11:52.143Z,10.80
2017-11-21T20:14:19.788Z,10.70
2017-11-21T20:16:48.272Z,10.70
2017-11-21T20:19:16.702Z,10.70
2017-11-21T20:21:44.339Z,10.70
2017-11-21T20:24:11.977Z,10.80
2017-11-21T20:26:40.396Z,10.70
2017-11-21T20:29:08.137Z,10.70
2017-11-21T20:31:35.766Z,10.60
2017-11-21T20:34:03.588Z,10.70
2017-11-21T20:36:31.177Z,10.60
2017-11-21T20:38:58.895Z,10.60
2017-11-21T20:41:26.574Z,10.60
2017-11-21T20:43:54.376Z,10.60
2017-11-21T20:46:22.146Z,10.60
2017-11-21T20:48:49.835Z,10.50
2017-11-21T20:51:17.732Z,10.50
2017-11-21T20:53:45.490Z,10.50
2017-11-21T20:56:13.169Z,10.40
2017-11-21T20:58:41.625Z,10.40
2017-11-21T21:01:09.462Z,10.50
2017-11-21T21:03:37.282Z,10.50
2017-11-21T21:06:04.943Z,10.50
2017-11-21T21:08:33.512Z,10.50
2017-11-21T21:11:01.178Z,10.60
2017-11-21T21:13:28.838Z,10.50
2017-11-21T21:15:57.349Z,10.50
2017-11-21T21:18:25.692Z,10.60
2017-11-21T21:20:53.651Z,10.60
2017-11-21T21:23:21.463Z,10.40
2017-11-21T21:25:49.089Z,10.50
2017-11-21T21:28:16.882Z,10.40
2017-11-21T21:30:45.389Z,10.40
2017-11-21T21:33:13.778Z,10.40
2017-11-21T21:35:41.466Z,10.40
2017-11-21T21:38:09.064Z,10.40
2017-11-21T21:40:37.142Z,10.40
2017-11-21T21:43:04.802Z,10.40
2017-11-21T21:45:32.543Z,10.40
2017-11-21T21:48:00.277Z,10.50
2017-11-21T21:50:27.962Z,10.50
2017-11-21T21:52:55.694Z,10.40
2017-11-21T21:55:24.112Z,10.40
2017-11-21T21:57:52.071Z,10.40
2017-11-21T22:00:19.689Z,10.30
2017-11-21T22:02:47.355Z,10.30
2017-11-21T22:05:15.065Z,10.30
2017-11-21T22:07:42.777Z,10.30
2017-11-21T22:10:11.431Z,10.30
2017-11-21T22:12:39.208Z,10.30
2017-11-21T22:15:07.164Z,10.30
2017-11-21T22:17:35.982Z,10.30
2017-11-21T22:20:04.538Z,10.20
2017-11-21T22:22:32.246Z,10.20
2017-11-21T22:24:59.885Z,10.30
2017-11-21T22:27:28.559Z,10.20
2017-11-21T22:29:56.155Z,10.20
2017-11-21T22:32:24.521Z,10.30
2017-11-21T22:34:52.182Z,10.30
2017-11-21T22:37:19.784Z,10.20
2017-11-21T22:39:47.521Z,10.30
2017-11-21T22:42:15.363Z,10.30
2017-11-21T22:44:44.094Z,10.30
2017-11-21T22:47:11.738Z,10.30
2017-11-21T22:49:40.192Z,10.30
2017-11-21T22:52:09.487Z,10.30
2017-11-21T22:54:37.379Z,10.30
2017-11-21T22:57:05.926Z,10.40
2017-11-21T22:59:33.642Z,10.40
2017-11-21T23:02:01.544Z,10.50
2017-11-21T23:04:29.172Z,10.60
2017-11-21T23:06:56.806Z,10.50
2017-11-21T23:09:25.402Z,10.40
2017-11-21T23:11:53.950Z,10.30
2017-11-21T23:14:21.693Z,10.30
2017-11-21T23:16:49.412Z,10.30
2017-11-21T23:19:17.933Z,10.40
2017-11-21T23:21:48.091Z,10.30
2017-11-21T23:24:15.715Z,10.20
2017-11-21T23:26:44.266Z,10.30
2017-11-21T23:29:11.896Z,10.20
2017-11-21T23:31:39.627Z,10.30
2017-11-21T23:34:07.988Z,10.20
2017-11-21T23:36:35.758Z,10.30
2017-11-21T23:39:03.461Z,10.30
2017-11-21T23:41:31.221Z,10.30
2017-11-21T23:43:58.828Z,10.30
2017-11-21T23:46:26.457Z,10.20
2017-11-21T23:48:55.842Z,10.20
2017-11-21T23:51:23.466Z,10.20
2017-11-21T23:53:51.112Z,10.20
2017-11-21T23:56:18.730Z,10.20
2017-11-21T23:58:46.427Z,10.30
